createdAt,value
2023-03-03T00:03:11.380Z,0.50
2023-03-03T00:08:15.335Z,0.53
2023-03-03T00:13:20.164Z,0.60
2023-03-03T00:18:29.739Z,0.67
2023-03-03T00:23:37.362Z,0.65
2023-03-03T00:28:46.594Z,0.65
2023-03-03T00:33:54.577Z,0.56
2023-03-03T00:39:11.424Z,0.48
2023-03-03T00:44:43.692Z,0.46
2023-03-03T00:49:46.340Z,0.47
2023-03-03T00:54:50.302Z,0.49
2023-03-03T00:59:52.841Z,0.47
2023-03-03T01:04:56.527Z,0.48
2023-03-03T01:10:00.264Z,0.54
2023-03-03T01:15:03.403Z,0.54
2023-03-03T01:20:06.992Z,0.58
2023-03-03T01:25:12.070Z,0.57
2023-03-03T01:30:15.507Z,0.66
2023-03-03T01:35:18.449Z,0.64
2023-03-03T01:40:24.336Z,0.74
2023-03-03T01:45:28.681Z,0.74
2023-03-03T01:50:42.848Z,0.76
2023-03-03T01:55:47.070Z,0.77
2023-03-03T02:00:53.003Z,0.77
2023-03-03T02:06:00.627Z,0.84
2023-03-03T02:11:05.801Z,0.81
2023-03-03T02:16:09.368Z,0.87
2023-03-03T02:21:13.696Z,0.90
2023-03-03T02:26:19.666Z,0.95
2023-03-03T02:31:24.508Z,0.98
2023-03-03T02:36:29.574Z,0.95
2023-03-03T02:41:37.498Z,1.02
2023-03-03T02:46:42.765Z,1.01
2023-03-03T02:51:45.623Z,1.07
2023-03-03T02:56:49.807Z,1.07
2023-03-03T03:01:54.047Z,1.08
2023-03-03T03:06:57.348Z,1.09
2023-03-03T03:12:02.516Z,1.13
2023-03-03T03:17:05.494Z,1.17
2023-03-03T03:22:08.057Z,1.16
2023-03-03T03:27:11.897Z,1.21
2023-03-03T03:32:14.484Z,1.18
2023-03-03T03:37:17.388Z,1.18
2023-03-03T03:42:21.454Z,1.25
2023-03-03T03:47:24.055Z,1.25
2023-03-03T03:52:26.605Z,1.25
2023-03-03T03:57:30.543Z,1.26
2023-03-03T04:02:33.157Z,1.26
2023-03-03T04:07:35.816Z,1.26
2023-03-03T04:12:39.758Z,1.20
2023-03-03T04:17:42.560Z,1.12
2023-03-03T04:22:45.229Z,1.15
2023-03-03T04:27:49.340Z,1.13
2023-03-03T04:32:53.225Z,1.12
2023-03-03T04:37:55.750Z,1.11
2023-03-03T04:42:59.700Z,1.11
2023-03-03T04:48:02.264Z,1.02
2023-03-03T04:53:04.825Z,1.04
2023-03-03T04:58:10.300Z,1.04
2023-03-03T05:03:14.122Z,1.05
2023-03-03T05:08:16.969Z,1.07
2023-03-03T05:13:21.188Z,1.03
2023-03-03T05:18:24.790Z,1.08
2023-03-03T05:23:27.312Z,1.03
2023-03-03T05:28:31.532Z,0.94
2023-03-03T05:33:34.116Z,1.01
2023-03-03T05:38:36.679Z,0.96
2023-03-03T05:43:40.638Z,0.97
2023-03-03T05:48:43.473Z,1.01
2023-03-03T05:53:46.097Z,1.09
2023-03-03T05:58:50.092Z,1.08
2023-03-03T06:03:52.620Z,1.15
2023-03-03T06:08:57.228Z,1.12
2023-03-03T06:14:01.277Z,1.13
2023-03-03T06:19:03.830Z,1.13
2023-03-03T06:24:07.117Z,1.18
2023-03-03T06:29:11.016Z,1.19
2023-03-03T06:34:13.627Z,1.21
2023-03-03T06:39:16.166Z,1.21
2023-03-03T06:44:20.119Z,1.28
2023-03-03T06:49:22.706Z,1.36
2023-03-03T06:54:30.874Z,1.42
2023-03-03T06:59:34.994Z,1.42
2023-03-03T07:04:39.531Z,1.47
2023-03-03T07:09:42.243Z,1.62
2023-03-03T07:14:51.608Z,1.59
2023-03-03T07:19:54.860Z,1.76
2023-03-03T07:25:01.783Z,1.77
2023-03-03T07:30:22.954Z,1.81
2023-03-03T07:35:42.427Z,1.85
2023-03-03T07:40:49.396Z,2.03
2023-03-03T07:45:53.647Z,2.06
2023-03-03T07:50:57.615Z,2.06
2023-03-03T07:56:01.653Z,2.07
2023-03-03T08:01:30.305Z,2.10
2023-03-03T08:06:42.668Z,2.23
2023-03-03T08:11:52.579Z,2.35
2023-03-03T08:16:56.796Z,2.53
2023-03-03T08:22:04.451Z,2.71
2023-03-03T08:27:07.087Z,3.00
2023-03-03T08:32:11.128Z,3.16
2023-03-03T08:37:13.855Z,3.27
2023-03-03T08:42:16.464Z,3.35
2023-03-03T08:47:20.388Z,3.63
2023-03-03T08:52:22.954Z,3.83
2023-03-03T08:57:25.479Z,3.96
2023-03-03T09:02:29.389Z,3.87
2023-03-03T09:07:32.065Z,4.13
2023-03-03T09:12:36.671Z,4.38
2023-03-03T09:17:40.723Z,4.54
2023-03-03T09:22:45.416Z,5.01
2023-03-03T09:27:48.037Z,5.46
2023-03-03T09:32:51.974Z,5.68
2023-03-03T09:37:54.572Z,5.29
2023-03-03T09:43:05.738Z,5.30
2023-03-03T09:48:31.100Z,6.13
2023-03-03T09:53:47.534Z,5.74
2023-03-03T09:59:14.218Z,5.99
2023-03-03T10:04:32.286Z,5.50
2023-03-03T10:09:44.843Z,5.67
2023-03-03T10:15:20.543Z,9.13
2023-03-03T10:20:49.094Z,11.02
2023-03-03T10:26:02.178Z,11.93
2023-03-03T10:31:18.518Z,12.78
2023-03-03T10:36:35.989Z,13.11
2023-03-03T10:42:00.476Z,13.01
2023-03-03T10:47:15.321Z,12.78
2023-03-03T10:52:33.847Z,11.51
2023-03-03T10:57:42.948Z,12.34
2023-03-03T11:03:00.669Z,12.93
2023-03-03T11:08:09.274Z,13.23
2023-03-03T11:13:20.185Z,13.82
2023-03-03T11:18:30.384Z,13.72
2023-03-03T11:23:54.323Z,13.70
2023-03-03T11:29:09.348Z,14.49
2023-03-03T11:34:24.498Z,13.86
2023-03-03T11:39:28.469Z,14.02
2023-03-03T11:44:36.810Z,14.25
2023-03-03T11:49:44.453Z,14.12
2023-03-03T11:54:53.237Z,13.88
2023-03-03T12:00:04.918Z,13.72
2023-03-03T12:05:13.194Z,12.66
2023-03-03T12:10:29.064Z,10.48
2023-03-03T12:15:39.230Z,9.96
2023-03-03T12:20:49.343Z,11.81
2023-03-03T12:26:01.521Z,12.25
2023-03-03T12:31:18.669Z,10.53
2023-03-03T12:36:37.734Z,9.77
2023-03-03T12:41:51.486Z,10.79
2023-03-03T12:47:01.824Z,9.96
2023-03-03T12:52:16.490Z,9.35
2023-03-03T12:57:31.177Z,8.85
2023-03-03T13:02:46.134Z,8.18
2023-03-03T13:07:57.497Z,7.90
2023-03-03T13:13:08.814Z,7.96
2023-03-03T13:18:26.390Z,8.02
2023-03-03T13:23:42.807Z,8.05
2023-03-03T13:28:58.943Z,8.07
2023-03-03T13:34:02.988Z,7.93
2023-03-03T13:39:18.929Z,7.81
2023-03-03T13:44:26.557Z,7.61
2023-03-03T13:49:48.653Z,7.38
2023-03-03T13:55:02.636Z,7.23
2023-03-03T14:00:13.203Z,7.05
2023-03-03T14:05:18.625Z,7.03
2023-03-03T14:10:26.342Z,7.00
2023-03-03T14:15:32.684Z,7.21
2023-03-03T14:20:38.837Z,7.41
2023-03-03T14:25:59.740Z,7.59
2023-03-03T14:31:16.721Z,7.81
2023-03-03T14:36:30.237Z,7.80
2023-03-03T14:41:39.787Z,7.97
2023-03-03T14:46:45.043Z,7.81
2023-03-03T14:51:49.464Z,7.74
2023-03-03T14:57:01.428Z,7.73
2023-03-03T15:02:33.616Z,7.92
2023-03-03T15:07:38.731Z,7.95
2023-03-03T15:12:43.174Z,7.83
2023-03-03T15:17:57.517Z,7.80
2023-03-03T15:23:14.053Z,7.74
2023-03-03T15:28:35.597Z,7.57
2023-03-03T15:33:46.873Z,7.44
2023-03-03T15:39:00.988Z,7.38
2023-03-03T15:44:13.434Z,7.39
2023-03-03T15:49:36.981Z,7.11
2023-03-03T15:54:50.287Z,7.00
2023-03-03T16:00:26.297Z,7.01
2023-03-03T16:05:34.557Z,6.86
2023-03-03T16:10:50.868Z,6.75
2023-03-03T16:16:05.517Z,6.64
2023-03-03T16:21:24.990Z,6.56
2023-03-03T16:26:39.929Z,6.38
2023-03-03T16:31:48.469Z,6.31
2023-03-03T16:37:11.877Z,6.22
2023-03-03T16:42:22.050Z,6.04
2023-03-03T16:47:39.356Z,5.98
2023-03-03T16:52:48.570Z,5.96
2023-03-03T16:58:04.100Z,5.93
2023-03-03T17:03:24.806Z,5.82
2023-03-03T17:09:04.614Z,5.61
2023-03-03T17:14:33.916Z,5.46
2023-03-03T17:19:47.587Z,5.35
2023-03-03T17:25:03.863Z,5.34
2023-03-03T17:30:13.871Z,5.32
2023-03-03T17:35:31.490Z,5.33
2023-03-03T17:40:53.204Z,5.30
2023-03-03T17:46:00.331Z,5.30
2023-03-03T17:51:32.110Z,5.29
2023-03-03T17:56:45.019Z,5.28
2023-03-03T18:02:26.129Z,5.28
2023-03-03T18:07:47.524Z,5.22
2023-03-03T18:12:57.446Z,5.22
2023-03-03T18:18:10.977Z,5.22
2023-03-03T18:23:42.757Z,5.18
2023-03-03T18:28:50.239Z,5.17
2023-03-03T18:34:04.452Z,5.17
2023-03-03T18:39:14.172Z,5.16
2023-03-03T18:44:30.134Z,5.16
2023-03-03T18:49:55.564Z,5.11
2023-03-03T18:55:24.568Z,5.06
2023-03-03T19:00:32.506Z,5.05
2023-03-03T19:05:47.516Z,5.02
2023-03-03T19:10:57.992Z,4.99
2023-03-03T19:16:03.354Z,5.00
2023-03-03T19:21:19.564Z,4.97
2023-03-03T19:26:58.864Z,4.95
2023-03-03T19:32:21.846Z,4.92
2023-03-03T19:37:40.985Z,4.88
2023-03-03T19:42:51.232Z,4.87
2023-03-03T19:48:05.666Z,4.84
2023-03-03T19:53:19.462Z,4.84
2023-03-03T19:58:30.232Z,4.82
2023-03-03T20:03:56.748Z,4.83
2023-03-03T20:09:04.392Z,4.83
2023-03-03T20:14:18.312Z,4.81
2023-03-03T20:19:29.070Z,4.82
2023-03-03T20:24:51.359Z,4.83
2023-03-03T20:30:03.862Z,4.82
2023-03-03T20:35:21.160Z,4.82
2023-03-03T20:40:33.504Z,4.81
2023-03-03T20:45:49.025Z,4.82
2023-03-03T20:51:03.525Z,4.82
2023-03-03T20:56:12.647Z,4.79
2023-03-03T21:01:17.328Z,4.82
2023-03-03T21:06:24.180Z,4.81
2023-03-03T21:11:42.856Z,4.81
2023-03-03T21:16:45.544Z,4.79
2023-03-03T21:21:50.794Z,4.76
2023-03-03T21:26:56.366Z,4.74
2023-03-03T21:32:01.153Z,4.73
2023-03-03T21:37:06.854Z,4.69
2023-03-03T21:42:12.034Z,4.67
2023-03-03T21:47:16.928Z,4.65
2023-03-03T21:52:22.808Z,4.58
2023-03-03T21:57:25.941Z,4.52
2023-03-03T22:02:28.863Z,4.53
2023-03-03T22:07:32.779Z,4.52
2023-03-03T22:12:35.357Z,4.52
2023-03-03T22:17:38.025Z,4.51
2023-03-03T22:22:42.308Z,4.57
2023-03-03T22:27:44.869Z,4.60
2023-03-03T22:32:52.145Z,4.59
2023-03-03T22:37:56.063Z,4.60
2023-03-03T22:42:58.775Z,4.58
2023-03-03T22:48:01.388Z,4.59
2023-03-03T22:53:05.409Z,4.59
2023-03-03T22:58:09.675Z,4.57
2023-03-03T23:03:12.905Z,4.55
2023-03-03T23:08:18.725Z,4.62
2023-03-03T23:13:21.294Z,4.62
2023-03-03T23:18:23.868Z,4.60
2023-03-03T23:23:29.566Z,4.60
2023-03-03T23:28:32.180Z,4.56
2023-03-03T23:33:35.708Z,4.60
2023-03-03T23:38:41.840Z,4.63
2023-03-03T23:43:45.907Z,4.55
2023-03-03T23:48:48.486Z,4.56
2023-03-03T23:53:52.327Z,4.56
2023-03-03T23:58:54.903Z,4.58
